sensor_id;sensor_type;location;lat;lon;timestamp;P1;durP1;ratioP1;P2;durP2;ratioP2
16242;SDS011;11719;51.052;6.982;2023-07-13T00:01:51;0.63;;;0.30;;
16242;SDS011;11719;51.052;6.982;2023-07-13T00:04:17;0.77;;;0.40;;
16242;SDS011;11719;51.052;6.982;2023-07-13T00:06:46;0.70;;;0.27;;
16242;SDS011;11719;51.052;6.982;2023-07-13T00:09:13;0.80;;;0.30;;
16242;SDS011;11719;51.052;6.982;2023-07-13T00:11:41;0.47;;;0.20;;
16242;SDS011;11719;51.052;6.982;2023-07-13T00:14:08;0.33;;;0.30;;
16242;SDS011;11719;51.052;6.982;2023-07-13T00:16:36;1.20;;;0.50;;
16242;SDS011;11719;51.052;6.982;2023-07-13T00:19:04;0.40;;;0.40;;
16242;SDS011;11719;51.052;6.982;2023-07-13T00:21:30;0.40;;;0.37;;
16242;SDS011;11719;51.052;6.982;2023-07-13T00:23:56;0.80;;;0.33;;
16242;SDS011;11719;51.052;6.982;2023-07-13T00:26:22;0.73;;;0.40;;
16242;SDS011;11719;51.052;6.982;2023-07-13T00:39:51;1.03;;;0.40;;
16242;SDS011;11719;51.052;6.982;2023-07-13T00:42:16;1.43;;;0.43;;
16242;SDS011;11719;51.052;6.982;2023-07-13T00:45:00;1.07;;;0.97;;
16242;SDS011;11719;51.052;6.982;2023-07-13T00:47:31;4.10;;;0.40;;
16242;SDS011;11719;51.052;6.982;2023-07-13T00:49:57;2.00;;;0.30;;
16242;SDS011;11719;51.052;6.982;2023-07-13T00:52:24;0.67;;;0.30;;
16242;SDS011;11719;51.052;6.982;2023-07-13T00:54:50;2.80;;;0.40;;
16242;SDS011;11719;51.052;6.982;2023-07-13T00:57:17;1.47;;;0.57;;
16242;SDS011;11719;51.052;6.982;2023-07-13T00:59:52;1.13;;;0.50;;
16242;SDS011;11719;51.052;6.982;2023-07-13T01:02:34;1.70;;;0.40;;
16242;SDS011;11719;51.052;6.982;2023-07-13T01:05:13;0.87;;;0.40;;
16242;SDS011;11719;51.052;6.982;2023-07-13T01:07:43;1.87;;;0.50;;
16242;SDS011;11719;51.052;6.982;2023-07-13T01:10:10;3.67;;;0.50;;
16242;SDS011;11719;51.052;6.982;2023-07-13T01:12:37;0.27;;;0.27;;
16242;SDS011;11719;51.052;6.982;2023-07-13T01:15:04;1.03;;;0.40;;
16242;SDS011;11719;51.052;6.982;2023-07-13T01:17:32;0.40;;;0.40;;
16242;SDS011;11719;51.052;6.982;2023-07-13T01:19:59;1.43;;;0.60;;
16242;SDS011;11719;51.052;6.982;2023-07-13T01:22:25;3.37;;;0.57;;
16242;SDS011;11719;51.052;6.982;2023-07-13T01:24:52;0.30;;;0.20;;
16242;SDS011;11719;51.052;6.982;2023-07-13T01:27:23;0.70;;;0.30;;
16242;SDS011;11719;51.052;6.982;2023-07-13T01:29:51;1.00;;;0.33;;
16242;SDS011;11719;51.052;6.982;2023-07-13T01:32:19;0.50;;;0.40;;
16242;SDS011;11719;51.052;6.982;2023-07-13T01:34:52;0.63;;;0.40;;
16242;SDS011;11719;51.052;6.982;2023-07-13T01:37:19;0.50;;;0.40;;
16242;SDS011;11719;51.052;6.982;2023-07-13T01:39:46;1.37;;;0.50;;
16242;SDS011;11719;51.052;6.982;2023-07-13T01:42:12;4.20;;;0.97;;
16242;SDS011;11719;51.052;6.982;2023-07-13T01:44:38;1.57;;;0.40;;
16242;SDS011;11719;51.052;6.982;2023-07-13T01:47:04;3.93;;;0.47;;
16242;SDS011;11719;51.052;6.982;2023-07-13T01:49:30;1.83;;;0.57;;
16242;SDS011;11719;51.052;6.982;2023-07-13T01:51:56;1.70;;;0.50;;
16242;SDS011;11719;51.052;6.982;2023-07-13T01:54:22;1.00;;;0.30;;
16242;SDS011;11719;51.052;6.982;2023-07-13T01:56:48;2.83;;;0.63;;
16242;SDS011;11719;51.052;6.982;2023-07-13T01:59:14;1.07;;;0.47;;
16242;SDS011;11719;51.052;6.982;2023-07-13T02:01:39;1.40;;;0.27;;
16242;SDS011;11719;51.052;6.982;2023-07-13T02:04:05;0.63;;;0.30;;
16242;SDS011;11719;51.052;6.982;2023-07-13T02:06:31;1.70;;;0.53;;
16242;SDS011;11719;51.052;6.982;2023-07-13T02:08:57;1.70;;;0.60;;
16242;SDS011;11719;51.052;6.982;2023-07-13T02:11:23;0.40;;;0.30;;
16242;SDS011;11719;51.052;6.982;2023-07-13T02:13:50;0.53;;;0.37;;
16242;SDS011;11719;51.052;6.982;2023-07-13T02:16:16;2.03;;;0.50;;
16242;SDS011;11719;51.052;6.982;2023-07-13T02:18:42;0.73;;;0.27;;
16242;SDS011;11719;51.052;6.982;2023-07-13T02:21:08;0.30;;;0.30;;
16242;SDS011;11719;51.052;6.982;2023-07-13T02:23:34;0.60;;;0.30;;
16242;SDS011;11719;51.052;6.982;2023-07-13T02:26:00;0.53;;;0.40;;
16242;SDS011;11719;51.052;6.982;2023-07-13T02:28:30;0.40;;;0.30;;
16242;SDS011;11719;51.052;6.982;2023-07-13T02:30:55;1.23;;;0.40;;
16242;SDS011;11719;51.052;6.982;2023-07-13T02:33:37;3.00;;;0.47;;
16242;SDS011;11719;51.052;6.982;2023-07-13T02:36:03;0.53;;;0.30;;
16242;SDS011;11719;51.052;6.982;2023-07-13T02:38:30;0.20;;;0.20;;
16242;SDS011;11719;51.052;6.982;2023-07-13T02:41:01;1.00;;;0.30;;
16242;SDS011;11719;51.052;6.982;2023-07-13T02:43:28;1.50;;;0.50;;
16242;SDS011;11719;51.052;6.982;2023-07-13T02:45:54;1.40;;;0.37;;
16242;SDS011;11719;51.052;6.982;2023-07-13T02:48:20;2.13;;;0.40;;
16242;SDS011;11719;51.052;6.982;2023-07-13T02:50:46;0.40;;;0.40;;
16242;SDS011;11719;51.052;6.982;2023-07-13T02:53:12;3.33;;;0.90;;
16242;SDS011;11719;51.052;6.982;2023-07-13T02:55:38;0.50;;;0.37;;
16242;SDS011;11719;51.052;6.982;2023-07-13T02:58:05;0.97;;;0.30;;
16242;SDS011;11719;51.052;6.982;2023-07-13T03:00:32;0.73;;;0.43;;
16242;SDS011;11719;51.052;6.982;2023-07-13T03:02:58;0.53;;;0.30;;
16242;SDS011;11719;51.052;6.982;2023-07-13T03:05:23;0.87;;;0.47;;
16242;SDS011;11719;51.052;6.982;2023-07-13T03:07:49;0.70;;;0.50;;
16242;SDS011;11719;51.052;6.982;2023-07-13T03:10:15;2.20;;;0.60;;
16242;SDS011;11719;51.052;6.982;2023-07-13T03:12:41;1.00;;;0.40;;
16242;SDS011;11719;51.052;6.982;2023-07-13T03:15:07;0.77;;;0.40;;
16242;SDS011;11719;51.052;6.982;2023-07-13T03:17:33;0.70;;;0.50;;
16242;SDS011;11719;51.052;6.982;2023-07-13T03:19:59;0.70;;;0.30;;
16242;SDS011;11719;51.052;6.982;2023-07-13T03:22:25;1.80;;;0.40;;
16242;SDS011;11719;51.052;6.982;2023-07-13T03:24:51;2.40;;;0.53;;
16242;SDS011;11719;51.052;6.982;2023-07-13T03:27:17;0.60;;;0.27;;
16242;SDS011;11719;51.052;6.982;2023-07-13T03:29:43;1.60;;;0.60;;
16242;SDS011;11719;51.052;6.982;2023-07-13T03:32:09;1.57;;;0.40;;
16242;SDS011;11719;51.052;6.982;2023-07-13T03:34:35;0.60;;;0.40;;
16242;SDS011;11719;51.052;6.982;2023-07-13T03:37:01;2.00;;;0.30;;
16242;SDS011;11719;51.052;6.982;2023-07-13T03:39:27;1.63;;;0.50;;
16242;SDS011;11719;51.052;6.982;2023-07-13T03:41:53;4.23;;;0.50;;
16242;SDS011;11719;51.052;6.982;2023-07-13T03:44:19;0.90;;;0.50;;
16242;SDS011;11719;51.052;6.982;2023-07-13T03:46:45;2.00;;;0.33;;
16242;SDS011;11719;51.052;6.982;2023-07-13T03:49:10;2.60;;;0.60;;
16242;SDS011;11719;51.052;6.982;2023-07-13T03:51:36;0.90;;;0.50;;
16242;SDS011;11719;51.052;6.982;2023-07-13T03:54:02;5.30;;;0.40;;
16242;SDS011;11719;51.052;6.982;2023-07-13T03:56:29;1.23;;;0.50;;
16242;SDS011;11719;51.052;6.982;2023-07-13T03:58:55;1.00;;;0.30;;
16242;SDS011;11719;51.052;6.982;2023-07-13T04:01:22;0.40;;;0.37;;
16242;SDS011;11719;51.052;6.982;2023-07-13T04:03:52;0.37;;;0.20;;
16242;SDS011;11719;51.052;6.982;2023-07-13T04:06:19;1.07;;;0.40;;
16242;SDS011;11719;51.052;6.982;2023-07-13T04:08:49;1.03;;;0.37;;
16242;SDS011;11719;51.052;6.982;2023-07-13T04:11:18;0.60;;;0.40;;
16242;SDS011;11719;51.052;6.982;2023-07-13T04:13:46;2.57;;;0.47;;
16242;SDS011;11719;51.052;6.982;2023-07-13T04:16:13;0.53;;;0.40;;
16242;SDS011;11719;51.052;6.982;2023-07-13T04:18:40;1.73;;;0.40;;
16242;SDS011;11719;51.052;6.982;2023-07-13T04:21:06;1.77;;;0.50;;
16242;SDS011;11719;51.052;6.982;2023-07-13T04:23:32;2.43;;;0.90;;
16242;SDS011;11719;51.052;6.982;2023-07-13T04:25:58;0.47;;;0.33;;
16242;SDS011;11719;51.052;6.982;2023-07-13T04:28:29;2.03;;;0.60;;
16242;SDS011;11719;51.052;6.982;2023-07-13T04:30:55;0.80;;;0.50;;
16242;SDS011;11719;51.052;6.982;2023-07-13T04:33:21;0.50;;;0.33;;
16242;SDS011;11719;51.052;6.982;2023-07-13T04:35:48;0.77;;;0.57;;
16242;SDS011;11719;51.052;6.982;2023-07-13T04:38:19;2.07;;;0.67;;
16242;SDS011;11719;51.052;6.982;2023-07-13T04:40:45;1.53;;;0.57;;
16242;SDS011;11719;51.052;6.982;2023-07-13T04:43:12;1.40;;;0.30;;
16242;SDS011;11719;51.052;6.982;2023-07-13T04:45:38;0.83;;;0.40;;
16242;SDS011;11719;51.052;6.982;2023-07-13T04:48:04;2.00;;;0.57;;
16242;SDS011;11719;51.052;6.982;2023-07-13T04:50:30;3.83;;;0.60;;
16242;SDS011;11719;51.052;6.982;2023-07-13T04:52:56;1.13;;;0.50;;
16242;SDS011;11719;51.052;6.982;2023-07-13T04:55:22;3.17;;;0.30;;
16242;SDS011;11719;51.052;6.982;2023-07-13T04:57:48;1.90;;;0.40;;
16242;SDS011;11719;51.052;6.982;2023-07-13T05:00:13;1.93;;;0.67;;
16242;SDS011;11719;51.052;6.982;2023-07-13T05:02:43;2.67;;;0.60;;
16242;SDS011;11719;51.052;6.982;2023-07-13T05:05:10;1.47;;;0.60;;
16242;SDS011;11719;51.052;6.982;2023-07-13T05:07:36;0.77;;;0.40;;
16242;SDS011;11719;51.052;6.982;2023-07-13T05:10:02;2.90;;;0.50;;
16242;SDS011;11719;51.052;6.982;2023-07-13T05:12:29;2.87;;;0.40;;
16242;SDS011;11719;51.052;6.982;2023-07-13T05:14:55;1.60;;;0.60;;
16242;SDS011;11719;51.052;6.982;2023-07-13T05:17:21;0.73;;;0.43;;
16242;SDS011;11719;51.052;6.982;2023-07-13T05:19:47;0.50;;;0.30;;
16242;SDS011;11719;51.052;6.982;2023-07-13T05:22:13;0.60;;;0.50;;
16242;SDS011;11719;51.052;6.982;2023-07-13T05:24:38;5.40;;;0.40;;
16242;SDS011;11719;51.052;6.982;2023-07-13T05:27:04;2.20;;;0.30;;
16242;SDS011;11719;51.052;6.982;2023-07-13T05:29:30;1.93;;;0.70;;
16242;SDS011;11719;51.052;6.982;2023-07-13T05:31:56;2.03;;;0.40;;
16242;SDS011;11719;51.052;6.982;2023-07-13T05:34:22;2.20;;;0.60;;
16242;SDS011;11719;51.052;6.982;2023-07-13T05:36:48;3.47;;;0.70;;
16242;SDS011;11719;51.052;6.982;2023-07-13T05:39:14;1.43;;;0.73;;
16242;SDS011;11719;51.052;6.982;2023-07-13T05:41:40;1.03;;;0.50;;
16242;SDS011;11719;51.052;6.982;2023-07-13T05:44:06;1.07;;;0.60;;
16242;SDS011;11719;51.052;6.982;2023-07-13T05:46:32;1.83;;;0.90;;
16242;SDS011;11719;51.052;6.982;2023-07-13T05:48:58;0.57;;;0.40;;
16242;SDS011;11719;51.052;6.982;2023-07-13T05:51:24;0.80;;;0.30;;
16242;SDS011;11719;51.052;6.982;2023-07-13T05:53:50;1.03;;;0.50;;
16242;SDS011;11719;51.052;6.982;2023-07-13T05:56:16;3.00;;;0.83;;
16242;SDS011;11719;51.052;6.982;2023-07-13T05:58:41;1.20;;;0.60;;
16242;SDS011;11719;51.052;6.982;2023-07-13T06:01:11;2.30;;;0.50;;
16242;SDS011;11719;51.052;6.982;2023-07-13T06:03:38;1.60;;;0.40;;
16242;SDS011;11719;51.052;6.982;2023-07-13T06:06:04;3.00;;;0.80;;
16242;SDS011;11719;51.052;6.982;2023-07-13T06:08:32;2.03;;;0.53;;
16242;SDS011;11719;51.052;6.982;2023-07-13T06:11:05;2.47;;;0.77;;
16242;SDS011;11719;51.052;6.982;2023-07-13T06:13:48;3.47;;;0.80;;
16242;SDS011;11719;51.052;6.982;2023-07-13T06:16:15;0.83;;;0.37;;
16242;SDS011;11719;51.052;6.982;2023-07-13T06:18:41;0.73;;;0.40;;
16242;SDS011;11719;51.052;6.982;2023-07-13T06:21:09;2.50;;;0.60;;
16242;SDS011;11719;51.052;6.982;2023-07-13T06:23:44;2.13;;;0.73;;
16242;SDS011;11719;51.052;6.982;2023-07-13T06:26:12;2.67;;;0.40;;
16242;SDS011;11719;51.052;6.982;2023-07-13T06:28:38;4.30;;;0.70;;
16242;SDS011;11719;51.052;6.982;2023-07-13T06:31:08;4.93;;;0.70;;
16242;SDS011;11719;51.052;6.982;2023-07-13T06:33:36;0.67;;;0.60;;
16242;SDS011;11719;51.052;6.982;2023-07-13T06:36:03;0.97;;;0.53;;
16242;SDS011;11719;51.052;6.982;2023-07-13T06:38:30;1.60;;;0.63;;
16242;SDS011;11719;51.052;6.982;2023-07-13T06:40:56;2.00;;;0.60;;
16242;SDS011;11719;51.052;6.982;2023-07-13T06:43:22;0.50;;;0.50;;
16242;SDS011;11719;51.052;6.982;2023-07-13T06:45:49;1.83;;;0.60;;
16242;SDS011;11719;51.052;6.982;2023-07-13T06:48:16;1.37;;;0.63;;
16242;SDS011;11719;51.052;6.982;2023-07-13T06:50:44;2.67;;;0.60;;
16242;SDS011;11719;51.052;6.982;2023-07-13T06:53:10;1.83;;;0.67;;
16242;SDS011;11719;51.052;6.982;2023-07-13T06:55:38;2.83;;;0.90;;
16242;SDS011;11719;51.052;6.982;2023-07-13T06:58:04;3.17;;;0.80;;
16242;SDS011;11719;51.052;6.982;2023-07-13T07:00:30;1.30;;;0.70;;
16242;SDS011;11719;51.052;6.982;2023-07-13T07:02:56;1.67;;;0.60;;
16242;SDS011;11719;51.052;6.982;2023-07-13T07:05:21;1.77;;;0.57;;
16242;SDS011;11719;51.052;6.982;2023-07-13T07:07:48;0.60;;;0.60;;
16242;SDS011;11719;51.052;6.982;2023-07-13T07:10:19;4.63;;;0.73;;
16242;SDS011;11719;51.052;6.982;2023-07-13T07:12:45;0.93;;;0.60;;
16242;SDS011;11719;51.052;6.982;2023-07-13T07:15:11;2.30;;;1.27;;
16242;SDS011;11719;51.052;6.982;2023-07-13T07:17:37;4.50;;;0.90;;
16242;SDS011;11719;51.052;6.982;2023-07-13T07:20:03;2.67;;;0.90;;
16242;SDS011;11719;51.052;6.982;2023-07-13T07:22:30;2.93;;;0.70;;
16242;SDS011;11719;51.052;6.982;2023-07-13T07:24:56;3.07;;;0.80;;
16242;SDS011;11719;51.052;6.982;2023-07-13T07:27:23;4.10;;;1.33;;
16242;SDS011;11719;51.052;6.982;2023-07-13T07:29:49;3.63;;;0.83;;
16242;SDS011;11719;51.052;6.982;2023-07-13T07:32:15;2.13;;;0.80;;
16242;SDS011;11719;51.052;6.982;2023-07-13T07:34:41;1.70;;;0.60;;
16242;SDS011;11719;51.052;6.982;2023-07-13T07:37:10;1.90;;;0.90;;
16242;SDS011;11719;51.052;6.982;2023-07-13T07:39:37;6.80;;;1.47;;
16242;SDS011;11719;51.052;6.982;2023-07-13T07:42:03;1.57;;;0.97;;
16242;SDS011;11719;51.052;6.982;2023-07-13T07:44:33;2.73;;;1.50;;
16242;SDS011;11719;51.052;6.982;2023-07-13T07:46:59;4.00;;;1.40;;
16242;SDS011;11719;51.052;6.982;2023-07-13T07:49:26;5.23;;;1.40;;
16242;SDS011;11719;51.052;6.982;2023-07-13T07:51:52;2.30;;;1.20;;
16242;SDS011;11719;51.052;6.982;2023-07-13T07:54:18;2.60;;;1.33;;
16242;SDS011;11719;51.052;6.982;2023-07-13T07:56:43;6.23;;;0.90;;
16242;SDS011;11719;51.052;6.982;2023-07-13T07:59:09;4.17;;;1.10;;
16242;SDS011;11719;51.052;6.982;2023-07-13T08:01:35;2.10;;;1.03;;
16242;SDS011;11719;51.052;6.982;2023-07-13T08:04:02;3.30;;;1.00;;
16242;SDS011;11719;51.052;6.982;2023-07-13T08:06:28;4.27;;;1.00;;
16242;SDS011;11719;51.052;6.982;2023-07-13T08:08:54;2.57;;;0.97;;
16242;SDS011;11719;51.052;6.982;2023-07-13T08:11:20;1.93;;;0.93;;
16242;SDS011;11719;51.052;6.982;2023-07-13T08:13:47;3.73;;;1.20;;
16242;SDS011;11719;51.052;6.982;2023-07-13T08:16:12;2.53;;;1.10;;
16242;SDS011;11719;51.052;6.982;2023-07-13T08:18:39;3.07;;;0.93;;
16242;SDS011;11719;51.052;6.982;2023-07-13T08:21:05;2.77;;;1.10;;
16242;SDS011;11719;51.052;6.982;2023-07-13T08:23:31;2.07;;;0.93;;
16242;SDS011;11719;51.052;6.982;2023-07-13T08:25:58;2.00;;;0.80;;
16242;SDS011;11719;51.052;6.982;2023-07-13T08:28:26;1.80;;;0.80;;
16242;SDS011;11719;51.052;6.982;2023-07-13T08:30:52;3.07;;;1.20;;
16242;SDS011;11719;51.052;6.982;2023-07-13T08:33:18;1.90;;;0.73;;
16242;SDS011;11719;51.052;6.982;2023-07-13T08:35:48;3.43;;;1.20;;
16242;SDS011;11719;51.052;6.982;2023-07-13T08:38:15;2.27;;;0.90;;
16242;SDS011;11719;51.052;6.982;2023-07-13T08:40:42;3.87;;;1.27;;
16242;SDS011;11719;51.052;6.982;2023-07-13T08:43:12;3.83;;;1.10;;
16242;SDS011;11719;51.052;6.982;2023-07-13T08:45:43;1.17;;;0.90;;
16242;SDS011;11719;51.052;6.982;2023-07-13T08:48:21;3.47;;;1.23;;
16242;SDS011;11719;51.052;6.982;2023-07-13T08:51:04;2.20;;;1.00;;
16242;SDS011;11719;51.052;6.982;2023-07-13T08:53:48;1.93;;;1.30;;
16242;SDS011;11719;51.052;6.982;2023-07-13T08:56:23;1.10;;;0.97;;
16242;SDS011;11719;51.052;6.982;2023-07-13T08:58:58;1.07;;;0.93;;
16242;SDS011;11719;51.052;6.982;2023-07-13T09:01:52;1.87;;;1.07;;
16242;SDS011;11719;51.052;6.982;2023-07-13T09:04:59;1.80;;;1.07;;
16242;SDS011;11719;51.052;6.982;2023-07-13T09:10:37;2.03;;;1.33;;
16242;SDS011;11719;51.052;6.982;2023-07-13T09:15:54;3.23;;;0.90;;
16242;SDS011;11719;51.052;6.982;2023-07-13T09:18:26;1.53;;;1.20;;
16242;SDS011;11719;51.052;6.982;2023-07-13T09:21:05;1.43;;;1.20;;
16242;SDS011;11719;51.052;6.982;2023-07-13T09:23:37;2.87;;;1.67;;
16242;SDS011;11719;51.052;6.982;2023-07-13T09:26:06;2.30;;;1.00;;
16242;SDS011;11719;51.052;6.982;2023-07-13T09:28:42;3.10;;;0.97;;
16242;SDS011;11719;51.052;6.982;2023-07-13T09:34:10;1.00;;;0.90;;
16242;SDS011;11719;51.052;6.982;2023-07-13T09:36:37;2.80;;;0.90;;
16242;SDS011;11719;51.052;6.982;2023-07-13T09:41:53;0.80;;;0.70;;
16242;SDS011;11719;51.052;6.982;2023-07-13T09:44:39;3.20;;;1.00;;
16242;SDS011;11719;51.052;6.982;2023-07-13T09:47:23;3.43;;;0.90;;
16242;SDS011;11719;51.052;6.982;2023-07-13T09:50:06;3.87;;;1.10;;
16242;SDS011;11719;51.052;6.982;2023-07-13T09:52:47;2.80;;;1.23;;
16242;SDS011;11719;51.052;6.982;2023-07-13T09:58:18;1.43;;;1.07;;
16242;SDS011;11719;51.052;6.982;2023-07-13T10:00:57;1.97;;;0.83;;
16242;SDS011;11719;51.052;6.982;2023-07-13T10:03:30;1.50;;;1.07;;
16242;SDS011;11719;51.052;6.982;2023-07-13T10:06:19;2.80;;;0.93;;
16242;SDS011;11719;51.052;6.982;2023-07-13T10:08:51;1.77;;;1.03;;
16242;SDS011;11719;51.052;6.982;2023-07-13T10:11:20;4.10;;;0.97;;
16242;SDS011;11719;51.052;6.982;2023-07-13T10:16:25;2.50;;;1.10;;
16242;SDS011;11719;51.052;6.982;2023-07-13T10:18:58;3.57;;;0.90;;
16242;SDS011;11719;51.052;6.982;2023-07-13T10:21:55;1.73;;;0.70;;
16242;SDS011;11719;51.052;6.982;2023-07-13T10:24:31;1.97;;;0.87;;
16242;SDS011;11719;51.052;6.982;2023-07-13T10:27:09;3.37;;;0.97;;
16242;SDS011;11719;51.052;6.982;2023-07-13T10:29:46;3.30;;;0.87;;
16242;SDS011;11719;51.052;6.982;2023-07-13T10:32:33;2.47;;;0.70;;
16242;SDS011;11719;51.052;6.982;2023-07-13T10:34:59;3.97;;;0.90;;
16242;SDS011;11719;51.052;6.982;2023-07-13T10:37:29;2.90;;;0.87;;
16242;SDS011;11719;51.052;6.982;2023-07-13T10:40:04;2.80;;;1.07;;
16242;SDS011;11719;51.052;6.982;2023-07-13T10:42:37;1.10;;;0.70;;
16242;SDS011;11719;51.052;6.982;2023-07-13T10:45:24;1.37;;;0.70;;
16242;SDS011;11719;51.052;6.982;2023-07-13T10:47:52;5.10;;;0.80;;
16242;SDS011;11719;51.052;6.982;2023-07-13T10:50:25;1.03;;;0.90;;
16242;SDS011;11719;51.052;6.982;2023-07-13T10:52:56;1.13;;;0.90;;
16242;SDS011;11719;51.052;6.982;2023-07-13T10:58:12;2.57;;;0.90;;
16242;SDS011;11719;51.052;6.982;2023-07-13T11:01:17;2.97;;;1.07;;
16242;SDS011;11719;51.052;6.982;2023-07-13T11:06:17;1.30;;;0.80;;
16242;SDS011;11719;51.052;6.982;2023-07-13T11:14:01;2.43;;;0.90;;
16242;SDS011;11719;51.052;6.982;2023-07-13T11:22:01;0.60;;;0.60;;
16242;SDS011;11719;51.052;6.982;2023-07-13T11:24:51;3.13;;;0.90;;
16242;SDS011;11719;51.052;6.982;2023-07-13T11:27:31;1.00;;;0.90;;
16242;SDS011;11719;51.052;6.982;2023-07-13T11:30:08;1.03;;;0.53;;
16242;SDS011;11719;51.052;6.982;2023-07-13T11:32:43;2.43;;;0.73;;
16242;SDS011;11719;51.052;6.982;2023-07-13T11:35:24;1.47;;;0.60;;
16242;SDS011;11719;51.052;6.982;2023-07-13T11:37:52;1.93;;;0.90;;
16242;SDS011;11719;51.052;6.982;2023-07-13T11:40:18;1.45;;;0.68;;
16242;SDS011;11719;51.052;6.982;2023-07-13T11:42:47;5.97;;;0.97;;
16242;SDS011;11719;51.052;6.982;2023-07-13T11:45:20;2.97;;;0.80;;
16242;SDS011;11719;51.052;6.982;2023-07-13T11:47:48;2.50;;;1.03;;
16242;SDS011;11719;51.052;6.982;2023-07-13T11:50:19;1.97;;;0.50;;
16242;SDS011;11719;51.052;6.982;2023-07-13T11:52:47;1.00;;;0.90;;
16242;SDS011;11719;51.052;6.982;2023-07-13T11:55:17;1.97;;;0.80;;
16242;SDS011;11719;51.052;6.982;2023-07-13T11:58:19;1.85;;;0.80;;
16242;SDS011;11719;51.052;6.982;2023-07-13T12:00:36;1.07;;;0.70;;
16242;SDS011;11719;51.052;6.982;2023-07-13T12:03:03;2.28;;;0.98;;
16242;SDS011;11719;51.052;6.982;2023-07-13T12:05:30;2.70;;;0.83;;
16242;SDS011;11719;51.052;6.982;2023-07-13T12:07:57;5.88;;;0.80;;
16242;SDS011;11719;51.052;6.982;2023-07-13T12:10:27;1.10;;;0.57;;
16242;SDS011;11719;51.052;6.982;2023-07-13T12:12:58;0.93;;;0.67;;
16242;SDS011;11719;51.052;6.982;2023-07-13T12:18:13;0.80;;;0.60;;
16242;SDS011;11719;51.052;6.982;2023-07-13T12:20:44;2.40;;;0.70;;
16242;SDS011;11719;51.052;6.982;2023-07-13T12:23:22;1.00;;;0.60;;
16242;SDS011;11719;51.052;6.982;2023-07-13T12:25:50;3.53;;;0.80;;
16242;SDS011;11719;51.052;6.982;2023-07-13T12:28:21;1.92;;;0.80;;
16242;SDS011;11719;51.052;6.982;2023-07-13T12:33:57;0.95;;;0.80;;
16242;SDS011;11719;51.052;6.982;2023-07-13T12:36:33;1.27;;;1.02;;
16242;SDS011;11719;51.052;6.982;2023-07-13T12:39:04;1.98;;;0.65;;
16242;SDS011;11719;51.052;6.982;2023-07-13T12:41:38;1.80;;;0.75;;
16242;SDS011;11719;51.052;6.982;2023-07-13T12:44:08;2.03;;;0.70;;
16242;SDS011;11719;51.052;6.982;2023-07-13T12:46:37;2.10;;;0.60;;
16242;SDS011;11719;51.052;6.982;2023-07-13T12:49:05;1.48;;;0.70;;
16242;SDS011;11719;51.052;6.982;2023-07-13T12:51:32;1.00;;;0.50;;
16242;SDS011;11719;51.052;6.982;2023-07-13T12:54:18;2.83;;;0.93;;
16242;SDS011;11719;51.052;6.982;2023-07-13T12:56:44;0.57;;;0.40;;
16242;SDS011;11719;51.052;6.982;2023-07-13T12:59:17;0.95;;;0.70;;
16242;SDS011;11719;51.052;6.982;2023-07-13T13:01:46;1.05;;;0.40;;
16242;SDS011;11719;51.052;6.982;2023-07-13T13:04:14;1.90;;;0.68;;
16242;SDS011;11719;51.052;6.982;2023-07-13T13:06:40;0.65;;;0.43;;
16242;SDS011;11719;51.052;6.982;2023-07-13T13:09:13;3.38;;;0.82;;
16242;SDS011;11719;51.052;6.982;2023-07-13T13:11:41;0.90;;;0.50;;
16242;SDS011;11719;51.052;6.982;2023-07-13T13:14:07;2.17;;;0.90;;
16242;SDS011;11719;51.052;6.982;2023-07-13T13:16:40;0.80;;;0.70;;
16242;SDS011;11719;51.052;6.982;2023-07-13T13:19:20;1.42;;;0.70;;
16242;SDS011;11719;51.052;6.982;2023-07-13T13:21:53;2.25;;;0.80;;
16242;SDS011;11719;51.052;6.982;2023-07-13T13:24:22;3.78;;;0.70;;
16242;SDS011;11719;51.052;6.982;2023-07-13T13:26:51;1.58;;;0.63;;
16242;SDS011;11719;51.052;6.982;2023-07-13T13:29:19;6.53;;;0.50;;
16242;SDS011;11719;51.052;6.982;2023-07-13T13:31:49;0.77;;;0.28;;
16242;SDS011;11719;51.052;6.982;2023-07-13T13:34:17;2.17;;;0.45;;
16242;SDS011;11719;51.052;6.982;2023-07-13T13:36:44;1.30;;;0.45;;
16242;SDS011;11719;51.052;6.982;2023-07-13T13:41:55;1.02;;;0.60;;
16242;SDS011;11719;51.052;6.982;2023-07-13T13:44:21;2.50;;;0.60;;
16242;SDS011;11719;51.052;6.982;2023-07-13T13:46:48;0.50;;;0.47;;
16242;SDS011;11719;51.052;6.982;2023-07-13T13:49:18;1.92;;;0.52;;
16242;SDS011;11719;51.052;6.982;2023-07-13T13:51:50;1.52;;;0.40;;
16242;SDS011;11719;51.052;6.982;2023-07-13T13:54:17;0.90;;;0.30;;
16242;SDS011;11719;51.052;6.982;2023-07-13T13:56:47;1.88;;;0.57;;
16242;SDS011;11719;51.052;6.982;2023-07-13T13:59:15;1.63;;;0.65;;
16242;SDS011;11719;51.052;6.982;2023-07-13T14:01:42;0.98;;;0.40;;
16242;SDS011;11719;51.052;6.982;2023-07-13T14:04:14;2.25;;;0.63;;
16242;SDS011;11719;51.052;6.982;2023-07-13T14:06:46;1.05;;;0.47;;
16242;SDS011;11719;51.052;6.982;2023-07-13T14:09:12;1.08;;;0.75;;
16242;SDS011;11719;51.052;6.982;2023-07-13T14:11:43;3.78;;;0.73;;
16242;SDS011;11719;51.052;6.982;2023-07-13T14:14:17;2.00;;;0.60;;
16242;SDS011;11719;51.052;6.982;2023-07-13T14:16:49;2.50;;;0.50;;
16242;SDS011;11719;51.052;6.982;2023-07-13T14:19:20;2.55;;;0.60;;
16242;SDS011;11719;51.052;6.982;2023-07-13T14:21:46;0.70;;;0.50;;
16242;SDS011;11719;51.052;6.982;2023-07-13T14:24:14;1.67;;;0.80;;
16242;SDS011;11719;51.052;6.982;2023-07-13T14:26:41;1.25;;;0.50;;
16242;SDS011;11719;51.052;6.982;2023-07-13T14:29:15;1.40;;;0.40;;
16242;SDS011;11719;51.052;6.982;2023-07-13T14:31:44;1.88;;;1.08;;
16242;SDS011;11719;51.052;6.982;2023-07-13T14:34:10;0.90;;;0.60;;
16242;SDS011;11719;51.052;6.982;2023-07-13T14:36:42;1.38;;;0.80;;
16242;SDS011;11719;51.052;6.982;2023-07-13T14:39:11;2.15;;;0.68;;
16242;SDS011;11719;51.052;6.982;2023-07-13T14:41:45;2.40;;;0.60;;
16242;SDS011;11719;51.052;6.982;2023-07-13T14:44:14;1.15;;;0.80;;
16242;SDS011;11719;51.052;6.982;2023-07-13T14:46:42;1.08;;;0.50;;
16242;SDS011;11719;51.052;6.982;2023-07-13T14:49:15;1.83;;;0.70;;
16242;SDS011;11719;51.052;6.982;2023-07-13T14:52:03;3.20;;;0.50;;
16242;SDS011;11719;51.052;6.982;2023-07-13T14:54:38;1.42;;;0.60;;
16242;SDS011;11719;51.052;6.982;2023-07-13T14:57:13;0.98;;;0.60;;
16242;SDS011;11719;51.052;6.982;2023-07-13T14:59:44;1.25;;;0.50;;
16242;SDS011;11719;51.052;6.982;2023-07-13T15:04:58;1.58;;;0.68;;
16242;SDS011;11719;51.052;6.982;2023-07-13T15:07:24;1.10;;;0.38;;
16242;SDS011;11719;51.052;6.982;2023-07-13T15:09:51;1.13;;;0.65;;
16242;SDS011;11719;51.052;6.982;2023-07-13T15:12:17;1.20;;;0.68;;
16242;SDS011;11719;51.052;6.982;2023-07-13T15:14:43;1.75;;;0.70;;
16242;SDS011;11719;51.052;6.982;2023-07-13T15:17:26;1.08;;;0.60;;
16242;SDS011;11719;51.052;6.982;2023-07-13T15:20:02;1.40;;;0.70;;
16242;SDS011;11719;51.052;6.982;2023-07-13T15:22:41;1.00;;;0.50;;
16242;SDS011;11719;51.052;6.982;2023-07-13T15:25:11;0.68;;;0.40;;
16242;SDS011;11719;51.052;6.982;2023-07-13T15:27:46;1.85;;;0.60;;
16242;SDS011;11719;51.052;6.982;2023-07-13T15:30:13;0.88;;;0.45;;
16242;SDS011;11719;51.052;6.982;2023-07-13T15:32:40;2.13;;;0.85;;
16242;SDS011;11719;51.052;6.982;2023-07-13T15:35:17;1.25;;;0.60;;
16242;SDS011;11719;51.052;6.982;2023-07-13T15:37:47;1.45;;;0.70;;
16242;SDS011;11719;51.052;6.982;2023-07-13T15:40:15;1.77;;;0.70;;
16242;SDS011;11719;51.052;6.982;2023-07-13T15:42:42;1.30;;;0.52;;
16242;SDS011;11719;51.052;6.982;2023-07-13T15:45:21;1.83;;;0.65;;
16242;SDS011;11719;51.052;6.982;2023-07-13T15:47:49;2.72;;;0.60;;
16242;SDS011;11719;51.052;6.982;2023-07-13T15:50:23;1.60;;;0.65;;
16242;SDS011;11719;51.052;6.982;2023-07-13T15:52:50;3.20;;;0.85;;
16242;SDS011;11719;51.052;6.982;2023-07-13T15:55:20;1.97;;;0.80;;
16242;SDS011;11719;51.052;6.982;2023-07-13T15:57:47;1.00;;;0.75;;